Flight Track Log - Related Links

Times and Time Zones

All times are in EDT time to prevent confusion due to time zone crossing. See the WAV761 flight status page for this flight to view local times or setup timezone preferences in your user account.

Time Position Orientation Groundspeed Altitude Reporting Facility
EDT Latitude Longitude Course Direction KTS MPH feet Rate Location/Type
Tue 10:20:31 PM 65.1167 -151.8167 100° East 150 173 3,400  Level Anchorage Center
Tue 10:21:32 PM 65.1333 -151.7333 65° Northeast 140 161 4,200 694 Climbing Anchorage Center
Tue 10:22:32 PM 65.1333 -151.6500 90° East 160 184 4,800 600 Climbing Anchorage Center
Tue 10:23:32 PM 65.1333 -151.5833 90° East 130 150 5,400 545 Climbing Anchorage Center
Tue 10:24:33 PM 65.1167 -151.5000 115° Southeast 170 196 5,900 545 Climbing Anchorage Center
Tue 10:25:00 PM 65.1293 -151.4777 100° East  Level Estimated
Tue 10:25:33 PM 65.1000 -151.4167 115° Southeast 140 161 6,500  Level Anchorage Center
Tue 10:26:33 PM 65.1000 -151.3167 90° East 190 219 7,000 248 Climbing Anchorage Center
Tue 10:27:34 PM 65.1000 -151.2000 90° East 170 196 7,000  Level Anchorage Center
Tue 10:28:34 PM 65.1000 -151.0833 90° East 170 196 7,000  Level Anchorage Center
Tue 10:29:34 PM 65.0833 -150.9667 109° East 170 196 7,000  Level Anchorage Center
Tue 10:30:35 PM 65.0667 -150.8500 109° East 180 207 7,000  Level Anchorage Center
Tue 10:31:35 PM 65.0667 -150.7500 90° East 170 196 7,000  Level Anchorage Center
Tue 10:32:36 PM 65.0500 -150.6333 109° East 170 196 7,000  Level Anchorage Center
Tue 10:33:36 PM 65.0500 -150.5167 90° East 170 196 7,000  Level Anchorage Center
Tue 10:34:36 PM 65.0333 -150.4000 109° East 180 207 7,000  Level Anchorage Center
Tue 10:35:37 PM 65.0333 -150.2833 90° East 170 196 7,000  Level Anchorage Center
Tue 10:36:37 PM 65.0167 -150.1667 109° East 180 207 7,000  Level Anchorage Center
Tue 10:37:37 PM 65.0000 -150.0667 111° Southeast 180 207 7,000  Level Anchorage Center
Tue 10:38:38 PM 65.0000 -149.9500 90° East 180 207 7,000  Level Anchorage Center
Tue 10:39:38 PM 64.9833 -149.8333 109° East 180 207 7,000  Level Anchorage Center
Tue 10:40:38 PM 64.9833 -149.7167 90° East 180 207 7,000  Level Anchorage Center
Tue 10:41:39 PM 64.9667 -149.6000 109° East 170 196 7,000  Level Anchorage Center
Tue 10:42:39 PM 64.9667 -149.4833 90° East 180 207 7,000  Level Anchorage Center
Tue 10:44:00 PM 64.9530 -149.3442 103° East  Level FlightAware Approximate
Tue 10:51:00 PM 64.8801 -148.6268 108° East  Level FlightAware Approximate
Tue 10:52:00 PM 64.8661 -148.5266 101° East  Level FlightAware Approximate
Tue 10:53:00 PM 64.8571 -148.4233 101° East  Level FlightAware Approximate
Tue 10:54:00 PM 64.8481 -148.3201 102° East  Level FlightAware Approximate
Tue 10:55:00 PM 64.8390 -148.2169 102° East  Level FlightAware Approximate
Tue 10:56:00 PM 64.8299 -148.1139 102° East  Level FlightAware Approximate
Tue 10:57:00 PM 64.8206 -148.0108 102° East  Level FlightAware Approximate
Tue 10:58:00 PM 64.8085 -147.9097 109° East  Level FlightAware Approximate
Tue 10:59:00 PM 64.8000 -147.8500 109° East  Level FlightAware Approximate
Tue 11:00:00 PM 64.8151 -147.8564 109° East  Level Estimated
Tue 11:01:00 PM 64.8151 -147.8564 109° East  Level Estimated
Tue 11:02:00 PM 64.8151 -147.8564 109° East  Level Estimated
Tue 11:03:00 PM 64.8151 -147.8564 109° East  Level Estimated
Tue 11:04:00 PM 64.8151 -147.8564 109° East  Level Estimated
Tue 11:05:00 PM 64.8151 -147.8564 109° East  Level Estimated
Tue 11:06:00 PM 64.8151 -147.8564 109° East  Level Estimated
Tue 11:07:00 PM 64.8151 -147.8564 109° East  Level Estimated
Tue 11:08:00 PM 64.8151 -147.8564 109° East  Level Estimated
Tue 11:09:00 PM 64.8151 -147.8564 109° East  Level Estimated
Tue 11:10:00 PM 64.8151 -147.8564 109° East  Level Estimated
Tue 11:11:00 PM 64.8151 -147.8564 109° East  Level Estimated
Tue 11:12:00 PM 64.8151 -147.8564 109° East  Level Estimated
Tue 11:13:00 PM 64.8151 -147.8564 109° East  Level Estimated
Tue 11:14:00 PM 64.8151 -147.8564 109° East  Level Estimated
Tue 11:15:00 PM 64.8151 -147.8564 109° East  Level Estimated

Login

Don't have an account? Register now (free) for customized features, flight alerts, and more!